createdAt,value
2023-04-22T08:01:08.097Z,500.00
2023-04-22T08:02:08.196Z,500.00
2023-04-22T08:03:08.475Z,500.00
2023-04-22T08:04:08.408Z,500.00
2023-04-22T08:05:08.237Z,500.00
2023-04-22T08:06:08.225Z,500.00
2023-04-22T08:07:26.838Z,400.00
2023-04-22T08:08:09.238Z,400.00
2023-04-22T08:09:08.223Z,400.00
2023-04-22T08:10:08.225Z,400.00
2023-04-22T08:11:08.199Z,400.00
2023-04-22T08:12:08.195Z,400.00
2023-04-22T08:13:08.213Z,400.00
2023-04-22T08:14:08.206Z,400.00
2023-04-22T08:15:08.210Z,400.00
2023-04-22T08:16:08.201Z,400.00
2023-04-22T08:17:08.197Z,400.00
2023-04-22T08:18:08.185Z,400.00
2023-04-22T08:19:08.128Z,400.00
2023-04-22T08:20:08.335Z,400.00
2023-04-22T08:21:08.192Z,400.00
2023-04-22T08:22:08.138Z,400.00
2023-04-22T08:23:08.197Z,400.00
2023-04-22T08:24:08.186Z,400.00
2023-04-22T08:25:08.257Z,400.00
2023-04-22T08:26:08.236Z,400.00
2023-04-22T08:27:08.274Z,400.00
2023-04-22T08:28:08.241Z,400.00
2023-04-22T08:29:08.253Z,400.00
2023-04-22T08:30:08.293Z,400.00
2023-04-22T08:31:08.322Z,400.00
2023-04-22T08:32:08.356Z,400.00
2023-04-22T08:33:08.299Z,400.00
2023-04-22T08:34:08.306Z,435.00
2023-04-22T08:35:08.423Z,480.00
2023-04-22T08:36:08.372Z,503.00
2023-04-22T08:37:08.353Z,500.00
2023-04-22T08:38:08.424Z,506.00
2023-04-22T08:39:08.362Z,505.00
2023-04-22T08:40:08.398Z,501.00
2023-04-22T08:41:08.431Z,502.00
2023-04-22T08:42:08.409Z,501.00
2023-04-22T08:43:08.449Z,500.00
2023-04-22T08:44:08.459Z,500.00
2023-04-22T08:45:08.472Z,503.00
2023-04-22T08:46:08.508Z,505.00
2023-04-22T08:47:08.603Z,500.00
2023-04-22T08:48:08.503Z,500.00
2023-04-22T08:49:08.571Z,500.00
2023-04-22T08:50:08.551Z,500.00
2023-04-22T08:51:08.550Z,500.00
2023-04-22T08:52:08.613Z,505.00
2023-04-22T08:53:08.602Z,501.00
2023-04-22T08:54:08.576Z,503.00
2023-04-22T08:55:08.623Z,500.00
2023-04-22T08:56:08.648Z,503.00
2023-04-22T08:57:08.649Z,504.00
2023-04-22T08:58:08.698Z,510.00
2023-04-22T08:59:08.690Z,506.00
2023-04-22T09:00:08.695Z,501.00
2023-04-22T09:01:08.688Z,504.00
2023-04-22T09:02:08.811Z,504.00
2023-04-22T09:03:08.917Z,500.00
2023-04-22T09:04:08.786Z,501.00
2023-04-22T09:05:08.749Z,504.00
2023-04-22T09:06:08.783Z,503.00
2023-04-22T09:07:08.757Z,508.00
2023-04-22T09:08:08.766Z,506.00
2023-04-22T09:09:08.812Z,509.00
2023-04-22T09:10:08.820Z,506.00
2023-04-22T09:11:08.798Z,506.00
2023-04-22T09:12:08.833Z,501.00
2023-04-22T09:13:08.849Z,505.00
2023-04-22T09:14:08.850Z,500.00
2023-04-22T09:15:08.844Z,502.00
2023-04-22T09:16:08.923Z,500.00
2023-04-22T09:17:08.886Z,500.00
2023-04-22T09:18:08.926Z,503.00
2023-04-22T09:19:08.879Z,503.00
2023-04-22T09:20:08.952Z,501.00
2023-04-22T09:21:08.898Z,506.00
2023-04-22T09:22:08.946Z,500.00
2023-04-22T09:23:08.962Z,506.00
2023-04-22T09:24:08.975Z,507.00
2023-04-22T09:25:08.974Z,505.00
2023-04-22T09:26:08.994Z,507.00
2023-04-22T09:27:08.991Z,505.00
2023-04-22T09:28:09.025Z,503.00
2023-04-22T09:29:09.060Z,505.00
2023-04-22T09:30:09.034Z,509.00
2023-04-22T09:31:09.076Z,503.00
2023-04-22T09:32:09.158Z,504.00
2023-04-22T09:33:09.125Z,503.00
2023-04-22T09:34:09.085Z,503.00
2023-04-22T09:35:09.067Z,501.00
2023-04-22T09:36:09.088Z,502.00
2023-04-22T09:37:09.094Z,505.00
2023-04-22T09:38:09.079Z,504.00
2023-04-22T09:39:09.131Z,505.00
2023-04-22T09:40:09.110Z,500.00
2023-04-22T09:41:09.113Z,502.00
2023-04-22T09:42:09.149Z,503.00
2023-04-22T09:43:09.125Z,500.00
2023-04-22T09:44:09.106Z,500.00
2023-04-22T09:45:09.123Z,505.00
2023-04-22T09:46:09.159Z,500.00
2023-04-22T09:47:09.189Z,501.00
2023-04-22T09:48:09.189Z,504.00
2023-04-22T09:49:09.134Z,502.00
2023-04-22T09:50:09.190Z,502.00
2023-04-22T09:51:09.138Z,505.00
2023-04-22T09:52:09.175Z,503.00
2023-04-22T09:53:09.176Z,506.00
2023-04-22T09:54:09.192Z,505.00
2023-04-22T09:55:09.225Z,503.00
2023-04-22T09:56:09.177Z,504.00
2023-04-22T09:57:09.184Z,503.00
2023-04-22T09:58:16.769Z,503.00
2023-04-22T09:59:09.254Z,504.00
2023-04-22T10:00:09.214Z,505.00
2023-04-22T10:01:09.236Z,503.00
2023-04-22T10:02:09.235Z,506.00
2023-04-22T10:03:10.833Z,503.00
2023-04-22T10:04:09.234Z,509.00
2023-04-22T10:05:09.178Z,503.00
2023-04-22T10:06:09.198Z,505.00
2023-04-22T10:07:09.167Z,511.00
2023-04-22T10:08:09.281Z,504.00
2023-04-22T10:09:09.642Z,503.00
2023-04-22T10:10:09.130Z,500.00
2023-04-22T10:11:09.164Z,509.00
2023-04-22T10:12:09.180Z,501.00
2023-04-22T10:13:09.132Z,507.00
2023-04-22T10:14:09.113Z,505.00
2023-04-22T10:15:09.120Z,501.00
2023-04-22T10:16:09.117Z,509.00
2023-04-22T10:17:09.189Z,505.00
2023-04-22T10:18:09.113Z,504.00
2023-04-22T10:19:09.114Z,503.00
2023-04-22T10:20:09.070Z,505.00
2023-04-22T10:21:09.087Z,508.00
2023-04-22T10:22:09.064Z,506.00
2023-04-22T10:23:09.092Z,508.00
2023-04-22T10:24:09.056Z,506.00
2023-04-22T10:25:09.076Z,506.00
2023-04-22T10:26:09.022Z,506.00
2023-04-22T10:27:09.034Z,502.00
2023-04-22T10:28:09.008Z,508.00
2023-04-22T10:29:09.052Z,500.00
2023-04-22T10:30:09.043Z,509.00
2023-04-22T10:31:09.066Z,505.00
2023-04-22T10:32:10.763Z,512.00
2023-04-22T10:33:09.269Z,507.00
2023-04-22T10:34:09.079Z,504.00
2023-04-22T10:35:09.072Z,507.00
2023-04-22T10:36:09.069Z,506.00
2023-04-22T10:37:09.077Z,507.00
2023-04-22T10:38:09.078Z,506.00
2023-04-22T10:39:09.114Z,504.00
2023-04-22T10:40:09.105Z,513.00
2023-04-22T10:41:09.120Z,508.00
2023-04-22T10:42:09.097Z,504.00
2023-04-22T10:43:09.134Z,505.00
2023-04-22T10:44:09.119Z,503.00
2023-04-22T10:45:09.126Z,502.00
2023-04-22T10:46:09.175Z,508.00
2023-04-22T10:47:09.162Z,505.00
2023-04-22T10:48:09.155Z,503.00
2023-04-22T10:49:09.173Z,504.00
2023-04-22T10:50:09.238Z,503.00
2023-04-22T10:51:09.204Z,505.00
2023-04-22T10:52:09.219Z,504.00
2023-04-22T10:53:09.222Z,503.00
2023-04-22T10:54:09.198Z,503.00
2023-04-22T10:55:09.258Z,507.00
2023-04-22T10:56:09.241Z,506.00
2023-04-22T10:57:09.247Z,507.00
2023-04-22T10:58:09.260Z,502.00
2023-04-22T10:59:09.291Z,507.00
2023-04-22T11:00:09.330Z,503.00
2023-04-22T11:01:09.366Z,504.00
2023-04-22T11:02:09.428Z,505.00
2023-04-22T11:03:09.506Z,506.00
2023-04-22T11:04:09.685Z,505.00
2023-04-22T11:05:09.392Z,504.00
2023-04-22T11:06:09.391Z,505.00
2023-04-22T11:07:09.455Z,511.00
2023-04-22T11:08:09.522Z,507.00
2023-04-22T11:09:09.504Z,502.00
2023-04-22T11:10:09.574Z,503.00
2023-04-22T11:11:09.607Z,505.00
2023-04-22T11:12:09.619Z,506.00
2023-04-22T11:13:09.649Z,505.00
2023-04-22T11:14:09.685Z,509.00
2023-04-22T11:15:09.727Z,505.00
2023-04-22T11:16:09.708Z,505.00
2023-04-22T11:17:09.742Z,507.00
2023-04-22T11:18:09.756Z,509.00
2023-04-22T11:19:09.894Z,508.00
2023-04-22T11:20:09.844Z,511.00
2023-04-22T11:21:09.897Z,507.00
2023-04-22T11:22:09.898Z,511.00
2023-04-22T11:23:09.934Z,508.00
2023-04-22T11:24:09.986Z,512.00
2023-04-22T11:25:10.061Z,509.00
2023-04-22T11:26:10.050Z,512.00
2023-04-22T11:27:10.087Z,510.00
2023-04-22T11:28:10.162Z,509.00
2023-04-22T11:29:10.199Z,509.00
2023-04-22T11:30:10.198Z,507.00
2023-04-22T11:31:10.344Z,504.00
2023-04-22T11:32:10.331Z,504.00
2023-04-22T11:33:10.344Z,508.00
2023-04-22T11:34:10.432Z,505.00
2023-04-22T11:35:10.511Z,508.00
2023-04-22T11:36:10.512Z,504.00
2023-04-22T11:37:10.557Z,503.00
2023-04-22T11:38:10.604Z,507.00
2023-04-22T11:39:10.773Z,509.00
2023-04-22T11:40:28.114Z,508.00
2023-04-22T11:41:11.723Z,509.00
2023-04-22T11:42:10.726Z,509.00
2023-04-22T11:43:10.731Z,509.00
2023-04-22T11:44:10.729Z,508.00
2023-04-22T11:45:10.725Z,507.00
2023-04-22T11:46:10.726Z,511.00
2023-04-22T11:47:10.701Z,511.00
2023-04-22T11:48:10.709Z,512.00
2023-04-22T11:49:10.660Z,508.00
2023-04-22T11:50:10.725Z,509.00
2023-04-22T11:51:10.771Z,510.00
2023-04-22T11:52:10.841Z,504.00
2023-04-22T11:53:10.914Z,504.00
2023-04-22T11:54:10.924Z,505.00
2023-04-22T11:55:11.000Z,511.00
2023-04-22T11:56:11.080Z,510.00
2023-04-22T11:57:11.128Z,506.00
2023-04-22T11:58:11.160Z,508.00
2023-04-22T11:59:11.938Z,508.00
2023-04-22T12:00:11.277Z,503.00
2023-04-22T12:01:11.330Z,509.00
2023-04-22T12:02:11.465Z,510.00
2023-04-22T12:03:14.738Z,505.00
2023-04-22T12:04:11.594Z,512.00
2023-04-22T12:05:11.416Z,513.00
2023-04-22T12:06:11.391Z,516.00
2023-04-22T12:07:11.381Z,509.00
2023-04-22T12:08:11.358Z,504.00
2023-04-22T12:09:13.343Z,507.00
2023-04-22T12:10:11.476Z,514.00
2023-04-22T12:11:11.593Z,510.00
2023-04-22T12:12:11.575Z,509.00
2023-04-22T12:13:11.604Z,509.00
2023-04-22T12:14:11.662Z,501.00
2023-04-22T12:15:13.772Z,505.00
2023-04-22T12:16:11.739Z,505.00
2023-04-22T12:17:11.881Z,505.00
2023-04-22T12:18:11.901Z,508.00
2023-04-22T12:19:11.917Z,505.00
2023-04-22T12:20:12.021Z,511.00
2023-04-22T12:21:11.913Z,503.00
2023-04-22T12:22:11.979Z,504.00
2023-04-22T12:23:11.971Z,503.00
2023-04-22T12:24:12.048Z,506.00
2023-04-22T12:25:12.053Z,500.00
2023-04-22T12:26:12.100Z,506.00
2023-04-22T12:27:12.124Z,505.00
2023-04-22T12:28:12.127Z,503.00
2023-04-22T12:29:12.196Z,511.00
2023-04-22T12:30:12.279Z,504.00
2023-04-22T12:31:12.319Z,502.00
2023-04-22T12:32:12.316Z,505.00
2023-04-22T12:33:12.334Z,509.00
2023-04-22T12:34:12.341Z,504.00
2023-04-22T12:35:12.388Z,501.00
2023-04-22T12:36:12.426Z,505.00
2023-04-22T12:37:12.497Z,503.00
2023-04-22T12:38:12.491Z,505.00
2023-04-22T12:39:12.634Z,507.00
2023-04-22T12:40:12.658Z,505.00
2023-04-22T12:41:12.600Z,506.00
2023-04-22T12:42:12.663Z,512.00
2023-04-22T12:43:12.606Z,511.00
2023-04-22T12:44:12.667Z,504.00
2023-04-22T12:45:12.693Z,501.00
2023-04-22T12:46:12.706Z,510.00
2023-04-22T12:47:12.716Z,510.00
2023-04-22T12:48:12.732Z,510.00
2023-04-22T12:49:12.876Z,503.00
2023-04-22T12:50:12.813Z,505.00
2023-04-22T12:51:12.832Z,504.00
2023-04-22T12:52:12.865Z,507.00
2023-04-22T12:53:12.892Z,506.00
2023-04-22T12:54:12.940Z,506.00
2023-04-22T12:55:12.925Z,509.00
2023-04-22T12:56:12.926Z,503.00
2023-04-22T12:57:12.980Z,514.00
2023-04-22T12:58:12.994Z,510.00
2023-04-22T12:59:13.081Z,502.00
2023-04-22T13:00:13.071Z,506.00
